createdAt,value
2022-12-25T00:02:23.616Z,2.30
2022-12-25T00:05:10.986Z,3.07
2022-12-25T00:07:58.392Z,3.30
2022-12-25T00:10:45.855Z,3.40
2022-12-25T00:13:33.805Z,3.20
2022-12-25T00:16:25.966Z,2.97
2022-12-25T00:19:13.902Z,2.50
2022-12-25T00:22:01.362Z,2.60
2022-12-25T00:24:49.320Z,2.10
2022-12-25T00:27:37.857Z,2.53
2022-12-25T00:30:25.704Z,2.20
2022-12-25T00:33:12.905Z,1.80
2022-12-25T00:36:00.934Z,2.03
2022-12-25T00:38:48.874Z,2.00
2022-12-25T00:41:55.142Z,1.70
2022-12-25T00:44:42.536Z,1.33
2022-12-25T00:47:30.301Z,1.43
2022-12-25T00:50:18.638Z,1.50
2022-12-25T00:53:06.028Z,1.30
2022-12-25T00:55:55.161Z,1.70
2022-12-25T00:58:42.563Z,1.60
2022-12-25T01:01:30.867Z,1.60
2022-12-25T01:04:18.312Z,1.50
2022-12-25T01:07:06.262Z,1.10
2022-12-25T01:10:12.338Z,1.27
2022-12-25T01:13:00.207Z,1.20
2022-12-25T01:15:48.296Z,1.40
2022-12-25T01:18:36.226Z,1.13
2022-12-25T01:21:24.178Z,1.40
2022-12-25T01:24:11.629Z,1.40
2022-12-25T01:26:59.523Z,1.40
2022-12-25T01:29:47.442Z,1.27
2022-12-25T01:32:35.363Z,1.27
2022-12-25T01:35:22.772Z,1.30
2022-12-25T01:38:10.233Z,1.23
2022-12-25T01:40:58.103Z,1.03
2022-12-25T01:43:57.803Z,1.00
2022-12-25T01:46:46.154Z,1.30
2022-12-25T01:49:38.592Z,1.00
2022-12-25T01:52:26.660Z,1.00
2022-12-25T01:55:13.985Z,1.00
2022-12-25T01:58:01.969Z,1.30
2022-12-25T02:00:49.768Z,1.00
2022-12-25T02:03:37.637Z,1.00
2022-12-25T02:06:25.657Z,1.00
2022-12-25T02:09:13.575Z,0.97
2022-12-25T02:12:01.658Z,0.70
2022-12-25T02:14:50.626Z,1.00
2022-12-25T02:17:53.762Z,1.17
2022-12-25T02:20:51.696Z,1.00
2022-12-25T02:23:59.397Z,1.07
2022-12-25T02:27:01.011Z,1.20
2022-12-25T02:29:50.162Z,1.30
2022-12-25T02:32:46.970Z,1.13
2022-12-25T02:35:34.884Z,0.80
2022-12-25T02:38:24.866Z,0.93
2022-12-25T02:41:16.720Z,0.97
2022-12-25T02:44:25.770Z,1.10
2022-12-25T02:47:45.820Z,0.97
2022-12-25T02:50:52.044Z,1.10
2022-12-25T02:54:00.538Z,0.97
2022-12-25T02:57:07.218Z,1.00
2022-12-25T03:00:15.705Z,1.20
2022-12-25T03:03:23.926Z,1.40
2022-12-25T03:06:30.903Z,1.20
2022-12-25T03:09:41.907Z,1.20
2022-12-25T03:12:35.814Z,1.27
2022-12-25T03:15:42.824Z,1.03
2022-12-25T03:18:31.345Z,0.93
2022-12-25T03:21:38.267Z,0.80
2022-12-25T03:24:44.226Z,1.03
2022-12-25T03:27:34.240Z,1.27
2022-12-25T03:30:41.908Z,1.10
2022-12-25T03:34:17.038Z,0.90
2022-12-25T03:37:29.885Z,0.90
2022-12-25T03:40:42.305Z,1.17
2022-12-25T03:43:54.845Z,1.10
2022-12-25T03:47:05.049Z,1.07
2022-12-25T03:50:18.733Z,1.00
2022-12-25T03:53:29.765Z,0.90
2022-12-25T03:56:37.164Z,1.00
2022-12-25T03:59:43.959Z,1.07
2022-12-25T04:02:50.643Z,0.77
2022-12-25T04:05:56.972Z,0.90
2022-12-25T04:09:03.503Z,0.90
2022-12-25T04:12:09.363Z,0.90
2022-12-25T04:15:32.554Z,0.83
2022-12-25T04:18:38.327Z,0.70
2022-12-25T04:21:44.689Z,0.90
2022-12-25T04:24:50.694Z,0.70
2022-12-25T04:27:57.148Z,1.00
2022-12-25T04:31:14.314Z,0.70
2022-12-25T04:34:20.522Z,1.00
2022-12-25T04:37:08.405Z,0.90
2022-12-25T04:39:55.774Z,0.73
2022-12-25T04:42:43.644Z,0.70
2022-12-25T04:45:31.122Z,0.83
2022-12-25T04:48:18.974Z,0.70
2022-12-25T04:51:13.869Z,0.73
2022-12-25T04:54:01.250Z,1.00
2022-12-25T04:56:49.131Z,0.73
2022-12-25T04:59:36.578Z,0.97
2022-12-25T05:02:24.927Z,0.50
2022-12-25T05:05:12.872Z,0.80
2022-12-25T05:08:00.807Z,0.60
2022-12-25T05:10:48.419Z,0.80
2022-12-25T05:13:36.489Z,1.03
2022-12-25T05:16:25.055Z,0.80
2022-12-25T05:19:12.453Z,0.90
2022-12-25T05:22:00.138Z,0.87
2022-12-25T05:24:47.567Z,0.90
2022-12-25T05:27:35.451Z,0.80
2022-12-25T05:30:23.405Z,0.83
2022-12-25T05:33:10.790Z,0.90
2022-12-25T05:35:58.678Z,1.03
2022-12-25T05:38:46.073Z,1.17
2022-12-25T05:41:34.812Z,1.00
2022-12-25T05:44:22.424Z,0.90
2022-12-25T05:47:10.365Z,0.93
2022-12-25T05:49:58.181Z,0.80
2022-12-25T05:52:46.054Z,0.80
2022-12-25T05:55:37.221Z,0.83
2022-12-25T05:58:25.153Z,0.90
2022-12-25T06:01:16.839Z,0.90
2022-12-25T06:04:11.954Z,0.90
2022-12-25T06:06:59.920Z,0.83
2022-12-25T06:09:47.820Z,0.87
2022-12-25T06:12:35.223Z,1.00
2022-12-25T06:15:22.894Z,0.90
2022-12-25T06:18:10.851Z,1.20
2022-12-25T06:20:58.227Z,1.10
2022-12-25T06:23:46.256Z,1.10
2022-12-25T06:26:33.659Z,1.20
2022-12-25T06:29:21.507Z,0.90
2022-12-25T06:32:08.897Z,1.00
2022-12-25T06:34:56.747Z,0.90
2022-12-25T06:37:44.627Z,1.20
2022-12-25T06:40:31.813Z,1.07
2022-12-25T06:43:19.684Z,1.30
2022-12-25T06:46:09.547Z,1.10
2022-12-25T06:48:58.598Z,1.10
2022-12-25T06:51:46.282Z,1.00
2022-12-25T06:54:34.246Z,1.10
2022-12-25T06:57:21.579Z,1.00
2022-12-25T07:00:09.797Z,1.03
2022-12-25T07:02:57.176Z,1.00
2022-12-25T07:05:45.385Z,0.93
2022-12-25T07:08:32.788Z,1.13
2022-12-25T07:11:21.057Z,1.07
2022-12-25T07:14:08.444Z,1.03
2022-12-25T07:16:56.389Z,1.00
2022-12-25T07:19:45.333Z,1.03
2022-12-25T07:22:33.499Z,1.00
2022-12-25T07:25:21.399Z,1.10
2022-12-25T07:28:09.346Z,0.83
2022-12-25T07:31:02.074Z,1.20
2022-12-25T07:33:49.477Z,0.90
2022-12-25T07:36:37.398Z,1.00
2022-12-25T07:39:24.582Z,1.00
2022-12-25T07:42:12.473Z,0.90
2022-12-25T07:44:59.861Z,1.10
2022-12-25T07:47:47.797Z,0.90
2022-12-25T07:50:35.266Z,1.30
2022-12-25T07:53:23.137Z,1.37
2022-12-25T07:56:15.961Z,1.00
2022-12-25T07:59:04.686Z,1.10
2022-12-25T08:01:52.812Z,0.90
2022-12-25T08:04:40.183Z,1.00
2022-12-25T08:07:28.080Z,1.10
2022-12-25T08:10:15.459Z,1.00
2022-12-25T08:13:06.495Z,0.87
2022-12-25T08:16:03.302Z,1.10
2022-12-25T08:18:51.219Z,0.93
2022-12-25T08:21:39.178Z,1.03
2022-12-25T08:24:26.537Z,0.80
2022-12-25T08:27:13.965Z,1.20
2022-12-25T08:30:01.366Z,1.00
2022-12-25T08:32:49.003Z,0.87
2022-12-25T08:35:36.768Z,0.90
2022-12-25T08:38:24.636Z,0.90
2022-12-25T08:41:12.465Z,0.97
2022-12-25T08:44:00.174Z,1.00
2022-12-25T08:46:47.600Z,0.90
2022-12-25T08:49:35.336Z,1.63
2022-12-25T08:52:23.572Z,1.00
2022-12-25T08:55:10.958Z,0.87
2022-12-25T08:57:58.834Z,1.00
2022-12-25T09:00:46.237Z,1.23
2022-12-25T09:03:34.438Z,1.37
2022-12-25T09:06:21.868Z,1.20
2022-12-25T09:09:09.980Z,1.00
2022-12-25T09:11:57.377Z,1.87
2022-12-25T09:14:45.314Z,2.10
2022-12-25T09:17:33.412Z,1.42
2022-12-25T09:20:21.312Z,1.30
2022-12-25T09:23:13.764Z,1.33
2022-12-25T09:26:03.081Z,1.40
2022-12-25T09:28:52.328Z,1.63
2022-12-25T09:31:40.179Z,1.05
2022-12-25T09:34:28.066Z,1.00
2022-12-25T09:37:15.316Z,1.20
2022-12-25T09:40:03.336Z,0.88
2022-12-25T09:42:53.780Z,0.90
2022-12-25T09:45:43.153Z,0.80
2022-12-25T09:48:31.914Z,0.80
2022-12-25T09:51:19.996Z,0.68
2022-12-25T09:54:11.608Z,0.68
2022-12-25T09:56:59.526Z,1.05
2022-12-25T09:59:48.019Z,0.90
2022-12-25T10:02:41.986Z,0.73
2022-12-25T10:05:48.618Z,0.60
2022-12-25T10:08:56.240Z,0.73
2022-12-25T10:11:50.282Z,0.50
2022-12-25T10:14:43.727Z,0.70
2022-12-25T10:17:34.603Z,0.68
2022-12-25T10:20:54.212Z,0.60
2022-12-25T10:23:44.803Z,0.65
2022-12-25T10:26:33.668Z,1.08
2022-12-25T10:29:21.253Z,0.85
2022-12-25T10:32:09.608Z,1.02
2022-12-25T10:34:57.497Z,0.80
2022-12-25T10:37:45.669Z,0.90
2022-12-25T10:40:46.264Z,0.90
2022-12-25T10:43:38.141Z,0.80
2022-12-25T10:46:27.017Z,0.82
2022-12-25T10:49:16.493Z,0.88
2022-12-25T10:52:04.420Z,0.70
2022-12-25T10:54:52.578Z,0.85
2022-12-25T10:57:47.008Z,0.70
2022-12-25T11:00:34.924Z,0.82
2022-12-25T11:03:24.042Z,0.57
2022-12-25T11:06:28.860Z,0.70
2022-12-25T11:09:17.160Z,0.90
2022-12-25T11:12:05.646Z,0.80
2022-12-25T11:14:57.747Z,1.52
2022-12-25T11:17:49.696Z,0.93
2022-12-25T11:20:41.222Z,0.80
2022-12-25T11:23:32.170Z,0.70
2022-12-25T11:26:20.128Z,0.80
2022-12-25T11:29:17.023Z,0.68
2022-12-25T11:32:06.337Z,0.77
2022-12-25T11:34:54.055Z,0.60
2022-12-25T11:37:44.627Z,0.90
2022-12-25T11:40:45.307Z,0.90
2022-12-25T11:43:43.334Z,0.90
2022-12-25T11:46:42.682Z,0.70
2022-12-25T11:49:31.243Z,0.73
2022-12-25T11:52:19.944Z,0.80
2022-12-25T11:55:15.299Z,0.98
2022-12-25T11:58:07.061Z,1.10
2022-12-25T12:00:56.784Z,0.70
2022-12-25T12:03:44.541Z,1.00
2022-12-25T12:06:51.020Z,1.05
2022-12-25T12:09:55.735Z,0.70
2022-12-25T12:12:49.359Z,1.10
2022-12-25T12:15:36.871Z,2.33
2022-12-25T12:18:27.358Z,2.60
2022-12-25T12:21:24.011Z,1.15
2022-12-25T12:24:14.357Z,2.90
2022-12-25T12:27:03.913Z,1.60
2022-12-25T12:29:52.754Z,1.20
2022-12-25T12:32:43.633Z,0.90
2022-12-25T12:35:41.300Z,0.77
2022-12-25T12:38:29.061Z,0.60
2022-12-25T12:41:18.144Z,0.60
2022-12-25T12:44:07.642Z,0.70
2022-12-25T12:46:56.671Z,0.68
2022-12-25T12:49:44.075Z,0.82
2022-12-25T12:52:36.826Z,0.75
2022-12-25T12:55:31.417Z,0.80
2022-12-25T12:58:40.364Z,0.70
2022-12-25T13:01:28.012Z,0.90
2022-12-25T13:04:28.627Z,0.70
2022-12-25T13:07:22.296Z,0.75
2022-12-25T13:10:32.806Z,0.73
2022-12-25T13:13:25.703Z,0.95
2022-12-25T13:16:34.329Z,0.82
2022-12-25T13:19:23.101Z,0.77
2022-12-25T13:22:22.340Z,0.80
2022-12-25T13:25:18.089Z,0.80
2022-12-25T13:28:05.539Z,0.82
2022-12-25T13:30:53.489Z,0.60
2022-12-25T13:33:41.697Z,0.80
2022-12-25T13:36:30.045Z,0.70
2022-12-25T13:39:18.926Z,0.90
2022-12-25T13:42:09.380Z,0.80
2022-12-25T13:44:59.307Z,0.80
2022-12-25T13:47:53.083Z,0.80
2022-12-25T13:50:48.761Z,0.93
2022-12-25T13:53:36.787Z,0.90
2022-12-25T13:56:24.191Z,0.90
2022-12-25T13:59:16.074Z,0.82
2022-12-25T14:02:04.319Z,1.00
2022-12-25T14:04:52.372Z,1.20
2022-12-25T14:07:39.782Z,1.08
2022-12-25T14:10:29.777Z,1.20
2022-12-25T14:13:19.157Z,1.00
2022-12-25T14:16:07.173Z,0.93
2022-12-25T14:18:56.429Z,1.13
2022-12-25T14:21:49.739Z,1.05
2022-12-25T14:24:37.876Z,1.00
2022-12-25T14:27:27.032Z,2.30
2022-12-25T14:30:15.108Z,1.35
2022-12-25T14:33:03.792Z,2.92
2022-12-25T14:35:51.787Z,2.03
2022-12-25T14:38:41.586Z,1.77
2022-12-25T14:41:33.871Z,2.08
2022-12-25T14:44:36.487Z,2.10
2022-12-25T14:47:23.897Z,1.83
2022-12-25T14:50:16.207Z,1.40
2022-12-25T14:53:03.590Z,1.60
2022-12-25T14:55:54.935Z,1.42
2022-12-25T14:58:43.770Z,1.75
2022-12-25T15:01:34.757Z,1.67
2022-12-25T15:04:23.695Z,1.83
2022-12-25T15:07:31.064Z,1.60
2022-12-25T15:10:58.077Z,1.83
2022-12-25T15:13:26.996Z,2.20
2022-12-25T15:16:22.309Z,2.58
2022-12-25T15:19:10.937Z,2.13
2022-12-25T15:21:59.651Z,1.67
2022-12-25T15:24:47.532Z,2.30
2022-12-25T15:27:36.297Z,2.03
2022-12-25T15:30:23.831Z,2.10
2022-12-25T15:33:13.857Z,2.33
2022-12-25T15:36:17.813Z,2.10
2022-12-25T15:39:05.334Z,2.60
2022-12-25T15:42:13.585Z,2.25
2022-12-25T15:45:00.808Z,2.13
2022-12-25T15:47:48.673Z,2.35
2022-12-25T15:50:38.092Z,2.58
2022-12-25T15:53:26.843Z,2.50
2022-12-25T15:56:14.968Z,2.80
2022-12-25T15:59:02.860Z,2.22
2022-12-25T16:01:54.573Z,2.47
2022-12-25T16:04:42.486Z,1.90
2022-12-25T16:07:31.875Z,2.10
2022-12-25T16:10:20.421Z,2.57
2022-12-25T16:13:07.816Z,3.20
2022-12-25T16:15:55.661Z,2.63
2022-12-25T16:18:47.404Z,2.60
2022-12-25T16:21:45.755Z,3.30
2022-12-25T16:24:33.039Z,4.83
2022-12-25T16:27:20.601Z,4.00
2022-12-25T16:30:08.422Z,3.27
2022-12-25T16:32:55.860Z,3.20
2022-12-25T16:35:44.524Z,5.00
2022-12-25T16:38:32.445Z,6.10
2022-12-25T16:41:19.914Z,5.13
2022-12-25T16:44:10.065Z,5.77
2022-12-25T16:46:57.557Z,3.80
2022-12-25T16:49:45.493Z,3.40
2022-12-25T16:52:33.765Z,4.17
2022-12-25T16:55:26.298Z,3.83
2022-12-25T16:58:16.937Z,3.93
2022-12-25T17:01:12.320Z,4.33
2022-12-25T17:04:03.488Z,4.10
2022-12-25T17:06:50.937Z,5.10
2022-12-25T17:09:43.862Z,5.57
2022-12-25T17:12:31.856Z,4.30
2022-12-25T17:15:19.377Z,4.13
2022-12-25T17:18:06.817Z,3.47
2022-12-25T17:20:54.468Z,4.23
2022-12-25T17:23:43.471Z,4.70
2022-12-25T17:26:31.263Z,4.30
2022-12-25T17:29:22.326Z,4.27
2022-12-25T17:32:11.017Z,4.17
2022-12-25T17:34:58.825Z,3.53
2022-12-25T17:37:46.099Z,3.90
2022-12-25T17:40:33.990Z,4.00
2022-12-25T17:43:21.433Z,4.90
2022-12-25T17:46:10.380Z,4.50
2022-12-25T17:48:59.205Z,4.63
2022-12-25T17:51:47.466Z,4.50
2022-12-25T17:54:34.794Z,5.37
2022-12-25T17:57:22.666Z,5.03
2022-12-25T18:00:10.057Z,5.47
2022-12-25T18:02:58.079Z,4.60
2022-12-25T18:05:45.538Z,4.90
2022-12-25T18:08:38.878Z,3.60
2022-12-25T18:11:29.138Z,2.63
2022-12-25T18:14:17.776Z,2.20
2022-12-25T18:17:05.169Z,1.80
2022-12-25T18:19:52.552Z,1.40
2022-12-25T18:22:39.832Z,1.90
2022-12-25T18:25:27.789Z,1.50
2022-12-25T18:28:15.068Z,1.53
2022-12-25T18:31:02.627Z,1.30
2022-12-25T18:33:50.479Z,1.03
2022-12-25T18:36:37.846Z,1.40
2022-12-25T18:39:25.104Z,1.27
2022-12-25T18:42:31.301Z,1.20
2022-12-25T18:45:19.065Z,1.00
2022-12-25T18:48:07.397Z,1.27
2022-12-25T18:50:56.301Z,1.30
2022-12-25T18:53:44.301Z,1.07
2022-12-25T18:56:31.650Z,1.23
2022-12-25T18:59:19.187Z,1.30
2022-12-25T19:02:07.173Z,1.53
2022-12-25T19:04:54.901Z,1.30
2022-12-25T19:07:42.357Z,1.17
2022-12-25T19:10:29.638Z,1.30
2022-12-25T19:13:16.961Z,1.20
2022-12-25T19:16:05.227Z,1.37
2022-12-25T19:18:52.483Z,1.07
2022-12-25T19:21:39.884Z,1.53
2022-12-25T19:24:27.199Z,1.37
2022-12-25T19:27:14.507Z,1.60
2022-12-25T19:30:02.266Z,1.20
2022-12-25T19:32:49.508Z,1.20
2022-12-25T19:35:40.144Z,1.17
2022-12-25T19:38:27.441Z,1.43
2022-12-25T19:41:15.980Z,1.30
2022-12-25T19:44:03.550Z,1.57
2022-12-25T19:46:51.227Z,1.50
2022-12-25T19:49:40.694Z,1.67
2022-12-25T19:52:28.267Z,1.43
2022-12-25T19:55:16.085Z,1.40
2022-12-25T19:58:03.470Z,1.40
2022-12-25T20:00:58.041Z,1.70
2022-12-25T20:03:46.653Z,1.23
2022-12-25T20:06:34.451Z,1.40
2022-12-25T20:09:22.001Z,1.10
2022-12-25T20:12:11.614Z,1.23
2022-12-25T20:14:59.414Z,1.20
2022-12-25T20:17:47.477Z,1.00
2022-12-25T20:20:34.858Z,0.90
2022-12-25T20:23:22.115Z,1.20
2022-12-25T20:26:09.735Z,1.20
2022-12-25T20:28:57.675Z,1.47
2022-12-25T20:31:45.124Z,1.30
2022-12-25T20:34:32.595Z,1.67
2022-12-25T20:37:20.397Z,1.83
2022-12-25T20:40:08.541Z,1.60
2022-12-25T20:42:55.809Z,1.47
2022-12-25T20:45:43.665Z,1.60
2022-12-25T20:48:30.953Z,1.33
2022-12-25T20:51:19.696Z,1.30
2022-12-25T20:54:07.822Z,1.17
2022-12-25T20:56:55.748Z,1.20
2022-12-25T20:59:43.411Z,1.30
2022-12-25T21:02:34.263Z,1.40
2022-12-25T21:05:23.412Z,1.50
2022-12-25T21:08:10.796Z,1.53
2022-12-25T21:11:03.245Z,1.30
2022-12-25T21:13:50.897Z,1.13
2022-12-25T21:16:38.666Z,1.20
2022-12-25T21:19:26.025Z,1.70
2022-12-25T21:22:13.410Z,1.50
2022-12-25T21:25:00.615Z,1.40
2022-12-25T21:27:48.021Z,1.47
2022-12-25T21:30:35.704Z,1.30
2022-12-25T21:33:41.768Z,1.33
2022-12-25T21:36:30.151Z,1.10
2022-12-25T21:39:17.743Z,1.13
2022-12-25T21:42:05.877Z,1.30
2022-12-25T21:44:53.136Z,1.50
2022-12-25T21:48:02.157Z,1.10
2022-12-25T21:51:20.413Z,1.30
2022-12-25T21:54:08.903Z,1.20
2022-12-25T21:56:56.721Z,1.20
2022-12-25T21:59:44.022Z,1.10
2022-12-25T22:02:31.378Z,1.40
2022-12-25T22:05:37.870Z,1.63
2022-12-25T22:08:29.319Z,1.50
2022-12-25T22:11:35.727Z,1.40
2022-12-25T22:14:52.511Z,1.47
2022-12-25T22:18:00.966Z,1.60
2022-12-25T22:20:48.336Z,1.10
2022-12-25T22:23:35.627Z,1.10
2022-12-25T22:26:22.935Z,1.20
2022-12-25T22:29:10.696Z,1.40
2022-12-25T22:31:58.200Z,1.60
2022-12-25T22:34:46.156Z,1.40
2022-12-25T22:37:34.212Z,1.27
2022-12-25T22:40:21.512Z,1.57
2022-12-25T22:43:08.794Z,1.47
2022-12-25T22:45:56.288Z,1.20
2022-12-25T22:48:43.658Z,1.37
2022-12-25T22:51:31.402Z,1.20
2022-12-25T22:54:19.953Z,1.27
2022-12-25T22:57:07.912Z,1.40
2022-12-25T22:59:55.820Z,1.20
2022-12-25T23:02:43.372Z,1.50
2022-12-25T23:05:30.790Z,1.20
2022-12-25T23:08:18.178Z,1.30
2022-12-25T23:11:06.341Z,1.60
2022-12-25T23:14:12.892Z,1.50
2022-12-25T23:17:00.926Z,1.33
2022-12-25T23:20:06.829Z,1.50
2022-12-25T23:23:13.266Z,1.60
2022-12-25T23:26:10.033Z,1.50
2022-12-25T23:29:16.156Z,1.50
2022-12-25T23:32:07.152Z,1.23
2022-12-25T23:34:56.324Z,1.20
2022-12-25T23:37:43.979Z,1.20
2022-12-25T23:40:31.229Z,1.33
2022-12-25T23:43:19.090Z,1.30
2022-12-25T23:46:06.408Z,1.00
2022-12-25T23:48:54.335Z,1.50
2022-12-25T23:51:43.159Z,1.30
2022-12-25T23:54:32.225Z,1.20
2022-12-25T23:57:19.928Z,1.30
